Address 0x8e8e81f7564231f8344f15eee586f10f4859a98f 1

Overview

Balance:
89.088848506644737622 MATIC

Token:
My Name Tag:
Not Available

Txn Hash Method
Block
From
To
Value [Txn Fee]
0x95eab88555be29b2bc513b1904f3269c09fc8f9fa08bb8a76058a7ab76cdae3dExec With Sigs R...295274912022-12-07 0:06:005 mins ago0x8e8e81f7564231f8344f15eee586f10f4859a98fOUT 0x25ad59adbe00c2d80c86d01e2e05e1294da848230 MATIC0.00026722238 2.565770005
0x16ad3253647d7675ecccd4a35601529c21b72488b9be9eaeec0e8a9fecc13c7eExec295274832022-12-07 0:05:196 mins ago0x8e8e81f7564231f8344f15eee586f10f4859a98fOUT 0x25ad59adbe00c2d80c86d01e2e05e1294da848230 MATIC0.001468981269 2.644135614
0xee3e689e8bf086bf33eddcf4e73304f537c1115b2464c962f90d326ef064f3eeExec295274832022-12-07 0:05:196 mins ago0x8e8e81f7564231f8344f15eee586f10f4859a98fOUT 0x25ad59adbe00c2d80c86d01e2e05e1294da848230 MATIC0.001469015643 2.644135614
0x1880e64cac3469527bd29a21e842a92d7fe56fc9581dd6eb69233a7460fdd639Exec With Sigs295273612022-12-06 23:55:0816 mins ago0x8e8e81f7564231f8344f15eee586f10f4859a98fOUT 0x25ad59adbe00c2d80c86d01e2e05e1294da848230 MATIC0.000252499063 2.697927806
0x0976bf08f9fe01030e5d442f0106bf40dcae47255dc258033882b7a029358cdaExec295273332022-12-06 23:52:4718 mins ago0x8e8e81f7564231f8344f15eee586f10f4859a98fOUT 0x25ad59adbe00c2d80c86d01e2e05e1294da848230 MATIC0.002004032452 3.110301313
0xf9f138437c83b8733c1c3d3beaf355b41dd2dbc994dd8a5accb72bfd289414e4Exec295273332022-12-06 23:52:4718 mins ago0x8e8e81f7564231f8344f15eee586f10f4859a98fOUT 0x25ad59adbe00c2d80c86d01e2e05e1294da848230 MATIC0.002003254876 3.110301313
0x8c04328ab43c48680f9cfbb55005bc2b7c6f82a4b7b8de4e515d4c4c582ba664Exec295271182022-12-06 23:34:4936 mins ago0x8e8e81f7564231f8344f15eee586f10f4859a98fOUT 0x25ad59adbe00c2d80c86d01e2e05e1294da848230 MATIC0.00138870935 2.498577457
0xb98876759c10d8de7924df9ea08068b0eb657034e92a999fd6478cc5a38cf987Exec295271182022-12-06 23:34:4936 mins ago0x8e8e81f7564231f8344f15eee586f10f4859a98fOUT 0x25ad59adbe00c2d80c86d01e2e05e1294da848230 MATIC0.00138814717 2.498577457
0x83e6480f3dd34e25029e21d7f981d0b93dd291c2b9e12450a9d1fc0044946a58Exec295270042022-12-06 23:25:1746 mins ago0x8e8e81f7564231f8344f15eee586f10f4859a98fOUT 0x25ad59adbe00c2d80c86d01e2e05e1294da848230 MATIC0.001411251638 2.540164043
0x851dc87e46531a210ec4c3fd54f3f1c4e27fee4eba7853be006e7838549e868bExec295269912022-12-06 23:24:1247 mins ago0x8e8e81f7564231f8344f15eee586f10f4859a98fOUT 0x25ad59adbe00c2d80c86d01e2e05e1294da848230 MATIC0.000607869101 2.590601513
0x801eabfb032f66c103a94808f7b1d6da6d4fae95d4d7574c87465c954791c964Exec295269882022-12-06 23:23:5747 mins ago0x8e8e81f7564231f8344f15eee586f10f4859a98fOUT 0x25ad59adbe00c2d80c86d01e2e05e1294da848230 MATIC0.001386820429 2.495178894
0x96c1134eab672e4c999206972cd57acc2b47294768f3cec39d0bdf7acc05c4e8Exec295269742022-12-06 23:22:4648 mins ago0x8e8e81f7564231f8344f15eee586f10f4859a98fOUT 0x25ad59adbe00c2d80c86d01e2e05e1294da848230 MATIC0.001635928911 2.540187342
0x25eeb22894474c6a6c01b26e5b3805522ae2a1aabb7263c60c7ffa5d9df144fbExec295268792022-12-06 23:14:5056 mins ago0x8e8e81f7564231f8344f15eee586f10f4859a98fOUT 0x25ad59adbe00c2d80c86d01e2e05e1294da848230 MATIC0.001878434185 3.381063196
0xa278d161361100a3de1fd9140ee411264e30f0973deb60f735880a0abf481d36Exec295268652022-12-06 23:13:4057 mins ago0x8e8e81f7564231f8344f15eee586f10f4859a98fOUT 0x25ad59adbe00c2d80c86d01e2e05e1294da848230 MATIC0.002129995696 3.306065784
0xe041cd0a249f38f221a9bace675a0c3e4cb13aa935f7df65e820accdb9b35eb8Exec With Sigs295268102022-12-06 23:09:041 hr 2 mins ago0x8e8e81f7564231f8344f15eee586f10f4859a98fOUT 0x25ad59adbe00c2d80c86d01e2e05e1294da848230 MATIC0.000149731509 1.600003308
0xe1c4f70d65411361a4b9a2b9a0ddd1fb2642dfc74333f47b75b6edb76ef40be4Exec295267752022-12-06 23:06:081 hr 5 mins ago0x8e8e81f7564231f8344f15eee586f10f4859a98fOUT 0x25ad59adbe00c2d80c86d01e2e05e1294da848230 MATIC0.000866123284 1.559003828
0xc0b1077c8b12109c2eed946ec3ce5a76ccf8eca8b60ef21a21af3886eb6cb33bExec295267592022-12-06 23:04:481 hr 6 mins ago0x8e8e81f7564231f8344f15eee586f10f4859a98fOUT 0x25ad59adbe00c2d80c86d01e2e05e1294da848230 MATIC0.000876329435 1.577337777
0x8d659faa1b6436ad494a1a1b07ae2d3d456fae21ef9cdef90ebe7b401185103eExec295267312022-12-06 23:02:281 hr 9 mins ago0x8e8e81f7564231f8344f15eee586f10f4859a98fOUT 0x25ad59adbe00c2d80c86d01e2e05e1294da848230 MATIC0.000841777294 1.5150043
0xf78b93508b27c022a73df0026109fd5aac71c23fd4310bcc160965b175b0f6d0Exec295266132022-12-06 22:52:361 hr 18 mins ago0x8e8e81f7564231f8344f15eee586f10f4859a98fOUT 0x25ad59adbe00c2d80c86d01e2e05e1294da848230 MATIC0.000452797511 1.580003877
0x0d7d3f25c195904ee202037e037fe72a1885480868b7d9ad892d4b4aa34051c7Exec With Sigs R...295265742022-12-06 22:49:201 hr 22 mins ago0x8e8e81f7564231f8344f15eee586f10f4859a98fOUT 0x25ad59adbe00c2d80c86d01e2e05e1294da848230 MATIC0.000156175992 1.500004735
0x8f0a46401ca9c5e62b48028e3efa601e07b0b3d3e289751f5cde6fd0d502b203Exec295265582022-12-06 22:48:001 hr 23 mins ago0x8e8e81f7564231f8344f15eee586f10f4859a98fOUT 0x25ad59adbe00c2d80c86d01e2e05e1294da848230 MATIC0.001011941511 1.530003888
0x09baf7824299d27de9bda48bfbe3eb41736eded7bd98240c692a50fdb05923b3Exec295265282022-12-06 22:45:301 hr 25 mins ago0x8e8e81f7564231f8344f15eee586f10f4859a98fOUT 0x25ad59adbe00c2d80c86d01e2e05e1294da848230 MATIC0.000964235066 1.45787418
0x4389f549cc25ee2033533dc427105ada708832aa4bd79455a343da5f71bc80edExec295265262022-12-06 22:45:191 hr 26 mins ago0x8e8e81f7564231f8344f15eee586f10f4859a98fOUT 0x25ad59adbe00c2d80c86d01e2e05e1294da848230 MATIC0.000833423629 1.500004732
0x320f241635d91de97f8fa9170b514254de1ea48d68d98d3d00582365b1c29f4bExec295265262022-12-06 22:45:191 hr 26 mins ago0x8e8e81f7564231f8344f15eee586f10f4859a98fOUT 0x25ad59adbe00c2d80c86d01e2e05e1294da848230 MATIC0.000833443129 1.500004732
0x7f4da3b517ceabb551c85814fe8e0b1bf844c860199a7dbf9ac7aaf27cc1bb89Exec295265142022-12-06 22:44:191 hr 27 mins ago0x8e8e81f7564231f8344f15eee586f10f4859a98fOUT 0x25ad59adbe00c2d80c86d01e2e05e1294da848230 MATIC0.000316333527 1.551323746
[ Download CSV Export 
Latest 4 internal transactions
Parent Txn Hash Block From To Value
0xd59d6864e9ac0f512fa804d93e9c7316c3f88a43dd3525e373571b20beb642c1287033892022-10-19 16:53:3948 days 7 hrs ago 0xf5de760f2e916647fd766b4ad9e85ff943ce3a2b0x8e8e81f7564231f8344f15eee586f10f4859a98f0.1 MATIC
0xc180495058d0b1805e3cd7e7d64245c8c65e97b6a673f48710abcca6a76ceda4285062182022-10-08 6:07:0959 days 18 hrs ago 0x7f092e65c688a509737fcd8d0998dd12208f52970x8e8e81f7564231f8344f15eee586f10f4859a98f0.2 MATIC
0x72d43a984e930bc47068d3b703a9220d950e140d982c2ff57280754ce2ebfeb8282371082022-09-22 13:31:3375 days 10 hrs ago 0x7f092e65c688a509737fcd8d0998dd12208f52970x8e8e81f7564231f8344f15eee586f10f4859a98f0.2 MATIC
0x6cadde3725d949546f9a5952412a95a2a7a8ff4f6774eb549dd4777ea2e01164282370292022-09-22 13:24:5775 days 10 hrs ago 0xf5de760f2e916647fd766b4ad9e85ff943ce3a2b0x8e8e81f7564231f8344f15eee586f10f4859a98f0.1 MATIC
[ Download CSV Export 
Loading

Contract Name:
0 MATIC

Compiler Version
0

Optimization Enabled:
0 MATIC

Other Settings:
-NA-
Block Transaction Gas Used Reward
Age Block Fee Address BC Fee Address Voting Power Jailed Incoming
Block Uncle Number Difficulty Gas Used Reward
Loading